PWSweather.com
Personal Weather Stations
Station Observations
IHTIMAN1
Neighbourhood 1, IhtimanBG 2050

Neighbourhood 1IhtimanBG 2050

Lat: 42.436852, Lon: 23.817921

Elevation: 2066

Station Type: Oregon Scientific WMR968

http://ihtiman-meteo.com

High Low Average
Temperature 63.0°F17.2°C 50.4°F10.2°C 55.9°F13.3°C
Dew Point 50.2°F10.1°C 36.0°F2.2°C 44.0°F6.7°C
Winds 9.2 mph 14.8 kmh Calm Calm 5.0 mph NW8.0 kmh NW
Wind Gusts 12.7 mph20.4 kmh 3.5 mph5.6 kmh 7.0 mph11.3 kmh
Humidity 98% 49% 66%
Pressure 30.15 in1021.0 mb 30.09 in1019.0 mb -
Precipitation 0.00 in0.0 mm - -
Hour Temp Dew Point Humidity Winds Wind Gusts Pressure Precip Precip Rate Daily Precip Total
12:00 AM 57.2°F14.0°C 42.1°F5.6°C 57% 4.6 mph N7.4 kmh N 8.1 mph13.0 kmh 30.12 in1020.0 mb - 0.00 in0.0 mm 0.00 in0.0 mm
12:10 AM 57.2°F14.0°C 42.1°F5.6°C 57% 4.6 mph N7.4 kmh N 5.8 mph9.3 kmh 30.12 in1020.0 mb - 0.00 in0.0 mm 0.00 in0.0 mm
12:20 AM 57.4°F14.1°C 41.8°F5.4°C 56% 4.6 mph NW7.4 kmh NW 5.8 mph9.3 kmh 30.12 in1020.0 mb - 0.00 in0.0 mm 0.00 in0.0 mm
12:30 AM 57.2°F14.0°C 41.6°F5.3°C 56% 3.5 mph NNW5.6 kmh NNW 5.8 mph9.3 kmh 30.12 in1020.0 mb - 0.00 in0.0 mm 0.00 in0.0 mm
12:40 AM 57.0°F13.9°C 41.5°F5.3°C 56% 4.6 mph N7.4 kmh N 5.8 mph9.3 kmh 30.12 in1020.0 mb - 0.00 in0.0 mm 0.00 in0.0 mm
12:50 AM 56.8°F13.8°C 40.8°F4.9°C 55% 5.8 mph NNW9.3 kmh NNW 8.1 mph13.0 kmh 30.12 in1020.0 mb - 0.00 in0.0 mm 0.00 in0.0 mm
01:00 AM 56.7°F13.7°C 40.7°F4.8°C 55% 4.6 mph N7.4 kmh N 9.2 mph14.8 kmh 30.12 in1020.0 mb - 0.00 in0.0 mm 0.00 in0.0 mm
01:10 AM 56.3°F13.5°C 39.9°F4.4°C 54% 4.6 mph N7.4 kmh N 8.1 mph13.0 kmh 30.12 in1020.0 mb - 0.00 in0.0 mm 0.00 in0.0 mm
01:20 AM 56.1°F13.4°C 39.7°F4.3°C 54% 4.6 mph NNW7.4 kmh NNW 9.2 mph14.8 kmh 30.12 in1020.0 mb - 0.00 in0.0 mm 0.00 in0.0 mm
01:30 AM 55.9°F13.3°C 39.0°F3.9°C 53% 4.6 mph N7.4 kmh N 8.1 mph13.0 kmh 30.12 in1020.0 mb - 0.00 in0.0 mm 0.00 in0.0 mm
01:40 AM 55.9°F13.3°C 39.0°F3.9°C 53% 4.6 mph N7.4 kmh N 5.8 mph9.3 kmh 30.12 in1020.0 mb - 0.00 in0.0 mm 0.00 in0.0 mm
01:50 AM 55.9°F13.3°C 39.0°F3.9°C 53% 3.5 mph N5.6 kmh N 8.1 mph13.0 kmh 30.12 in1020.0 mb - 0.00 in0.0 mm 0.00 in0.0 mm
02:00 AM 55.8°F13.2°C 38.4°F3.6°C 52% 4.6 mph NNW7.4 kmh NNW 5.8 mph9.3 kmh 30.12 in1020.0 mb - 0.00 in0.0 mm 0.00 in0.0 mm
02:10 AM 55.8°F13.2°C 38.4°F3.6°C 52% 5.8 mph NNW9.3 kmh NNW 8.1 mph13.0 kmh 30.12 in1020.0 mb - 0.00 in0.0 mm 0.00 in0.0 mm
02:20 AM 55.9°F13.3°C 38.6°F3.7°C 52% 5.8 mph N9.3 kmh N 5.8 mph9.3 kmh 30.12 in1020.0 mb - 0.00 in0.0 mm 0.00 in0.0 mm
02:30 AM 55.8°F13.2°C 37.9°F3.3°C 51% 5.8 mph N9.3 kmh N 5.8 mph9.3 kmh 30.12 in1020.0 mb - 0.00 in0.0 mm 0.00 in0.0 mm
02:40 AM 55.6°F13.1°C 37.7°F3.2°C 51% 4.6 mph NW7.4 kmh NW 5.8 mph9.3 kmh 30.12 in1020.0 mb - 0.00 in0.0 mm 0.00 in0.0 mm
02:50 AM 55.4°F13.0°C 37.6°F3.1°C 51% 4.6 mph N7.4 kmh N 8.1 mph13.0 kmh 30.12 in1020.0 mb - 0.00 in0.0 mm 0.00 in0.0 mm
03:00 AM 55.4°F13.0°C 37.1°F2.8°C 50% 4.6 mph NNW7.4 kmh NNW 8.1 mph13.0 kmh 30.12 in1020.0 mb - 0.00 in0.0 mm 0.00 in0.0 mm
03:10 AM 55.2°F12.9°C 36.9°F2.7°C 50% 4.6 mph NNW7.4 kmh NNW 5.8 mph9.3 kmh 30.12 in1020.0 mb - 0.00 in0.0 mm 0.00 in0.0 mm
03:20 AM 55.4°F13.0°C 37.1°F2.8°C 50% 3.5 mph NNW5.6 kmh NNW 5.8 mph9.3 kmh 30.12 in1020.0 mb - 0.00 in0.0 mm 0.00 in0.0 mm
03:30 AM 55.3°F12.9°C 37.0°F2.8°C 50% 5.8 mph NW9.3 kmh NW 8.1 mph13.0 kmh 30.12 in1020.0 mb - 0.00 in0.0 mm 0.00 in0.0 mm
03:40 AM 55.2°F12.9°C 36.9°F2.7°C 50% 4.6 mph N7.4 kmh N 5.8 mph9.3 kmh 30.12 in1020.0 mb - 0.00 in0.0 mm 0.00 in0.0 mm
03:50 AM 55.2°F12.9°C 36.9°F2.7°C 50% 6.9 mph NW11.1 kmh NW 8.1 mph13.0 kmh 30.12 in1020.0 mb - 0.00 in0.0 mm 0.00 in0.0 mm
04:00 AM 55.2°F12.9°C 36.9°F2.7°C 50% 6.9 mph NW11.1 kmh NW 8.1 mph13.0 kmh 30.12 in1020.0 mb - 0.00 in0.0 mm 0.00 in0.0 mm
04:10 AM 55.4°F13.0°C 36.5°F2.5°C 49% 4.6 mph NW7.4 kmh NW 8.1 mph13.0 kmh 30.12 in1020.0 mb - 0.00 in0.0 mm 0.00 in0.0 mm
04:20 AM 55.4°F13.0°C 36.5°F2.5°C 49% 4.6 mph NW7.4 kmh NW 5.8 mph9.3 kmh 30.12 in1020.0 mb - 0.00 in0.0 mm 0.00 in0.0 mm
04:30 AM 55.2°F12.9°C 36.4°F2.4°C 49% 5.8 mph NNW9.3 kmh NNW 8.1 mph13.0 kmh 30.12 in1020.0 mb - 0.00 in0.0 mm 0.00 in0.0 mm
04:40 AM 55.2°F12.9°C 36.9°F2.7°C 50% 3.5 mph NW5.6 kmh NW 5.8 mph9.3 kmh 30.12 in1020.0 mb - 0.00 in0.0 mm 0.00 in0.0 mm
04:50 AM 55.2°F12.9°C 36.9°F2.7°C 50% 3.5 mph N5.6 kmh N 5.8 mph9.3 kmh 30.12 in1020.0 mb - 0.00 in0.0 mm 0.00 in0.0 mm
05:00 AM 55.2°F12.9°C 36.9°F2.7°C 50% 4.6 mph N7.4 kmh N 5.8 mph9.3 kmh 30.12 in1020.0 mb - 0.00 in0.0 mm 0.00 in0.0 mm
05:10 AM 55.2°F12.9°C 36.9°F2.7°C 50% 4.6 mph NNW7.4 kmh NNW 8.1 mph13.0 kmh 30.12 in1020.0 mb - 0.00 in0.0 mm 0.00 in0.0 mm
05:20 AM 55.2°F12.9°C 36.4°F2.4°C 49% 4.6 mph NNW7.4 kmh NNW 9.2 mph14.8 kmh 30.12 in1020.0 mb - 0.00 in0.0 mm 0.00 in0.0 mm
05:30 AM 55.2°F12.9°C 36.4°F2.4°C 49% 5.8 mph NW9.3 kmh NW 8.1 mph13.0 kmh 30.12 in1020.0 mb - 0.00 in0.0 mm 0.00 in0.0 mm
05:40 AM 55.2°F12.9°C 36.4°F2.4°C 49% 4.6 mph NNW7.4 kmh NNW 8.1 mph13.0 kmh 30.12 in1020.0 mb - 0.00 in0.0 mm 0.00 in0.0 mm
05:50 AM 55.2°F12.9°C 36.4°F2.4°C 49% 4.6 mph N7.4 kmh N 8.1 mph13.0 kmh 30.12 in1020.0 mb - 0.00 in0.0 mm 0.00 in0.0 mm
06:00 AM 55.2°F12.9°C 36.4°F2.4°C 49% 4.6 mph NNW7.4 kmh NNW 8.1 mph13.0 kmh 30.12 in1020.0 mb - 0.00 in0.0 mm 0.00 in0.0 mm
06:10 AM 55.2°F12.9°C 36.9°F2.7°C 50% 5.8 mph N9.3 kmh N 8.1 mph13.0 kmh 30.12 in1020.0 mb - 0.00 in0.0 mm 0.00 in0.0 mm
06:20 AM 54.9°F12.7°C 36.0°F2.2°C 49% 4.6 mph N7.4 kmh N 5.8 mph9.3 kmh 30.12 in1020.0 mb - 0.00 in0.0 mm 0.00 in0.0 mm
06:30 AM 54.9°F12.7°C 36.0°F2.2°C 49% 4.6 mph NNW7.4 kmh NNW 5.8 mph9.3 kmh 30.12 in1020.0 mb - 0.00 in0.0 mm 0.00 in0.0 mm
06:40 AM 54.9°F12.7°C 36.6°F2.6°C 50% 4.6 mph NNW7.4 kmh NNW 5.8 mph9.3 kmh 30.12 in1020.0 mb - 0.00 in0.0 mm 0.00 in0.0 mm
06:50 AM 54.9°F12.7°C 36.6°F2.6°C 50% 4.6 mph NW7.4 kmh NW 5.8 mph9.3 kmh 30.12 in1020.0 mb - 0.00 in0.0 mm 0.00 in0.0 mm
07:00 AM 54.9°F12.7°C 36.6°F2.6°C 50% 3.5 mph N5.6 kmh N 5.8 mph9.3 kmh 30.12 in1020.0 mb - 0.00 in0.0 mm 0.00 in0.0 mm
07:10 AM 55.0°F12.8°C 36.2°F2.3°C 49% 4.6 mph NNW7.4 kmh NNW 5.8 mph9.3 kmh 30.12 in1020.0 mb - 0.00 in0.0 mm 0.00 in0.0 mm
07:20 AM 55.4°F13.0°C 36.5°F2.5°C 49% 4.6 mph WNW7.4 kmh WNW 8.1 mph13.0 kmh 30.15 in1021.0 mb - 0.00 in0.0 mm 0.00 in0.0 mm
07:30 AM 55.6°F13.1°C 36.7°F2.6°C 49% 3.5 mph NNW5.6 kmh NNW 5.8 mph9.3 kmh 30.15 in1021.0 mb - 0.00 in0.0 mm 0.00 in0.0 mm
07:40 AM 55.7°F13.2°C 36.8°F2.7°C 49% 3.5 mph NW5.6 kmh NW 6.9 mph11.1 kmh 30.15 in1021.0 mb - 0.00 in0.0 mm 0.00 in0.0 mm
07:50 AM 55.8°F13.2°C 36.9°F2.7°C 49% 4.6 mph NW7.4 kmh NW 8.1 mph13.0 kmh 30.15 in1021.0 mb - 0.00 in0.0 mm 0.00 in0.0 mm
08:00 AM 55.6°F13.1°C 36.7°F2.6°C 49% 3.5 mph NW5.6 kmh NW 5.8 mph9.3 kmh 30.15 in1021.0 mb - 0.00 in0.0 mm 0.00 in0.0 mm
08:10 AM 55.6°F13.1°C 36.7°F2.6°C 49% 3.5 mph NW5.6 kmh NW 5.8 mph9.3 kmh 30.15 in1021.0 mb - 0.00 in0.0 mm 0.00 in0.0 mm
08:20 AM 55.8°F13.2°C 37.4°F3.0°C 50% 4.6 mph NNW7.4 kmh NNW 6.9 mph11.1 kmh 30.12 in1020.0 mb - 0.00 in0.0 mm 0.00 in0.0 mm
08:30 AM 55.9°F13.3°C 37.6°F3.1°C 50% 4.6 mph NW7.4 kmh NW 8.1 mph13.0 kmh 30.15 in1021.0 mb - 0.00 in0.0 mm 0.00 in0.0 mm
08:40 AM 56.1°F13.4°C 37.7°F3.2°C 50% 4.6 mph NW7.4 kmh NW 5.8 mph9.3 kmh 30.15 in1021.0 mb - 0.00 in0.0 mm 0.00 in0.0 mm
08:50 AM 55.8°F13.2°C 37.4°F3.0°C 50% 5.8 mph NW9.3 kmh NW 5.8 mph9.3 kmh 30.15 in1021.0 mb - 0.00 in0.0 mm 0.00 in0.0 mm
09:00 AM 55.4°F13.0°C 37.5°F3.1°C 51% 3.5 mph NW5.6 kmh NW 5.8 mph9.3 kmh 30.15 in1021.0 mb - 0.00 in0.0 mm 0.00 in0.0 mm
09:10 AM 55.2°F12.9°C 38.8°F3.8°C 54% 3.5 mph NNW5.6 kmh NNW 5.8 mph9.3 kmh 30.15 in1021.0 mb - 0.00 in0.0 mm 0.00 in0.0 mm
09:20 AM 54.9°F12.7°C 41.3°F5.2°C 60% 6.9 mph NNW11.1 kmh NNW 9.2 mph14.8 kmh 30.15 in1021.0 mb - 0.00 in0.0 mm 0.00 in0.0 mm
09:30 AM 54.1°F12.3°C 43.0°F6.1°C 66% 6.9 mph NNW11.1 kmh NNW 8.1 mph13.0 kmh 30.15 in1021.0 mb - 0.00 in0.0 mm 0.00 in0.0 mm
09:40 AM 53.3°F11.8°C 44.9°F7.2°C 73% 3.5 mph NW5.6 kmh NW 5.8 mph9.3 kmh 30.15 in1021.0 mb - 0.00 in0.0 mm 0.00 in0.0 mm
09:50 AM 53.3°F11.8°C 47.3°F8.5°C 80% 4.6 mph NW7.4 kmh NW 5.8 mph9.3 kmh 30.15 in1021.0 mb - 0.00 in0.0 mm 0.00 in0.0 mm
10:00 AM 53.2°F11.8°C 48.2°F9.0°C 83% 3.5 mph N5.6 kmh N 5.8 mph9.3 kmh 30.15 in1021.0 mb - 0.00 in0.0 mm 0.00 in0.0 mm
10:10 AM 53.8°F12.1°C 49.1°F9.5°C 84% 4.6 mph NW7.4 kmh NW 5.8 mph9.3 kmh 30.15 in1021.0 mb - 0.00 in0.0 mm 0.00 in0.0 mm
10:20 AM 53.9°F12.2°C 48.9°F9.4°C 83% 5.8 mph NW9.3 kmh NW 8.1 mph13.0 kmh 30.15 in1021.0 mb - 0.00 in0.0 mm 0.00 in0.0 mm
10:30 AM 54.2°F12.3°C 48.8°F9.3°C 82% 5.8 mph NW9.3 kmh NW 5.8 mph9.3 kmh 30.15 in1021.0 mb - 0.00 in0.0 mm 0.00 in0.0 mm
10:40 AM 55.3°F12.9°C 49.6°F9.8°C 81% Calm Calm 5.8 mph9.3 kmh 30.15 in1021.0 mb - 0.00 in0.0 mm 0.00 in0.0 mm
10:50 AM 56.1°F13.4°C 49.0°F9.4°C 77% 4.6 mph NW7.4 kmh NW 8.1 mph13.0 kmh 30.15 in1021.0 mb - 0.00 in0.0 mm 0.00 in0.0 mm
11:00 AM 55.9°F13.3°C 48.1°F8.9°C 75% 3.5 mph NW5.6 kmh NW 5.8 mph9.3 kmh 30.15 in1021.0 mb - 0.00 in0.0 mm 0.00 in0.0 mm
11:10 AM 55.7°F13.2°C 47.5°F8.6°C 74% 4.6 mph NW7.4 kmh NW 5.8 mph9.3 kmh 30.15 in1021.0 mb - 0.00 in0.0 mm 0.00 in0.0 mm
11:20 AM 56.0°F13.3°C 48.2°F9.0°C 75% 2.3 mph WNW3.7 kmh WNW 4.6 mph7.4 kmh 30.15 in1021.0 mb - 0.00 in0.0 mm 0.00 in0.0 mm
11:30 AM 56.7°F13.7°C 48.5°F9.2°C 74% 2.3 mph NW3.7 kmh NW 4.6 mph7.4 kmh 30.15 in1021.0 mb - 0.00 in0.0 mm 0.00 in0.0 mm
11:40 AM 57.4°F14.1°C 48.9°F9.4°C 73% 3.5 mph WNW5.6 kmh WNW 3.5 mph5.6 kmh 30.15 in1021.0 mb - 0.00 in0.0 mm 0.00 in0.0 mm
11:50 AM 57.6°F14.2°C 48.3°F9.1°C 71% 2.3 mph NW3.7 kmh NW 4.6 mph7.4 kmh 30.15 in1021.0 mb - 0.00 in0.0 mm 0.00 in0.0 mm
12:00 PM 57.9°F14.4°C 48.6°F9.2°C 71% 3.5 mph N5.6 kmh N 5.8 mph9.3 kmh 30.15 in1021.0 mb - 0.00 in0.0 mm 0.00 in0.0 mm
12:10 PM 57.1°F13.9°C 47.8°F8.8°C 71% 3.5 mph W5.6 kmh W 3.5 mph5.6 kmh 30.15 in1021.0 mb - 0.00 in0.0 mm 0.00 in0.0 mm
12:20 PM 57.2°F14.0°C 47.5°F8.6°C 70% 3.5 mph W5.6 kmh W 3.5 mph5.6 kmh 30.15 in1021.0 mb - 0.00 in0.0 mm 0.00 in0.0 mm
12:30 PM 58.1°F14.5°C 48.0°F8.9°C 69% 1.2 mph WSW1.9 kmh WSW 3.5 mph5.6 kmh 30.12 in1020.0 mb - 0.00 in0.0 mm 0.00 in0.0 mm
12:40 PM 59.0°F15.0°C 48.4°F9.1°C 68% 2.3 mph WSW3.7 kmh WSW 3.5 mph5.6 kmh 30.12 in1020.0 mb - 0.00 in0.0 mm 0.00 in0.0 mm
12:50 PM 60.2°F15.7°C 49.2°F9.6°C 67% 3.5 mph NW5.6 kmh NW 5.8 mph9.3 kmh 30.12 in1020.0 mb - 0.00 in0.0 mm 0.00 in0.0 mm
01:00 PM 61.3°F16.3°C 49.5°F9.7°C 65% 2.3 mph NNW3.7 kmh NNW 3.5 mph5.6 kmh 30.12 in1020.0 mb - 0.00 in0.0 mm 0.00 in0.0 mm
01:10 PM 61.0°F16.1°C 48.7°F9.3°C 64% 3.5 mph NNW5.6 kmh NNW 3.5 mph5.6 kmh 30.12 in1020.0 mb - 0.00 in0.0 mm 0.00 in0.0 mm
01:20 PM 61.9°F16.6°C 49.1°F9.5°C 63% 1.2 mph N1.9 kmh N 5.8 mph9.3 kmh 30.12 in1020.0 mb - 0.00 in0.0 mm 0.00 in0.0 mm
01:30 PM 61.3°F16.3°C 47.8°F8.8°C 61% 4.6 mph NW7.4 kmh NW 8.1 mph13.0 kmh 30.12 in1020.0 mb - 0.00 in0.0 mm 0.00 in0.0 mm
01:40 PM 60.8°F16.0°C 49.0°F9.4°C 65% 5.8 mph NNW9.3 kmh NNW 8.1 mph13.0 kmh 30.12 in1020.0 mb - 0.00 in0.0 mm 0.00 in0.0 mm
01:50 PM 62.2°F16.8°C 49.8°F9.9°C 64% 5.8 mph N9.3 kmh N 11.5 mph18.5 kmh 30.12 in1020.0 mb - 0.00 in0.0 mm 0.00 in0.0 mm
02:00 PM 62.0°F16.7°C 49.3°F9.6°C 63% 5.8 mph NW9.3 kmh NW 8.1 mph13.0 kmh 30.12 in1020.0 mb - 0.00 in0.0 mm 0.00 in0.0 mm
02:10 PM 61.6°F16.4°C 48.8°F9.3°C 63% 3.5 mph WNW5.6 kmh WNW 8.1 mph13.0 kmh 30.12 in1020.0 mb - 0.00 in0.0 mm 0.00 in0.0 mm
02:20 PM 60.6°F15.9°C 48.4°F9.1°C 64% 5.8 mph NW9.3 kmh NW 6.9 mph11.1 kmh 30.12 in1020.0 mb - 0.00 in0.0 mm 0.00 in0.0 mm
02:30 PM 60.5°F15.8°C 48.7°F9.3°C 65% 6.9 mph NNW11.1 kmh NNW 11.5 mph18.5 kmh 30.12 in1020.0 mb - 0.00 in0.0 mm 0.00 in0.0 mm
02:40 PM 60.1°F15.6°C 48.7°F9.3°C 66% 8.1 mph NW13.0 kmh NW 12.7 mph20.4 kmh 30.12 in1020.0 mb - 0.00 in0.0 mm 0.00 in0.0 mm
02:50 PM 60.6°F15.9°C 49.2°F9.6°C 66% 6.9 mph WNW11.1 kmh WNW 9.2 mph14.8 kmh 30.12 in1020.0 mb - 0.00 in0.0 mm 0.00 in0.0 mm
03:00 PM 61.4°F16.3°C 49.5°F9.7°C 65% 8.1 mph NW13.0 kmh NW 11.5 mph18.5 kmh 30.12 in1020.0 mb - 0.00 in0.0 mm 0.00 in0.0 mm
03:10 PM 62.2°F16.8°C 49.5°F9.7°C 63% 6.9 mph NW11.1 kmh NW 11.5 mph18.5 kmh 30.12 in1020.0 mb - 0.00 in0.0 mm 0.00 in0.0 mm
03:20 PM 62.2°F16.8°C 49.4°F9.7°C 63% 8.1 mph NW13.0 kmh NW 10.4 mph16.7 kmh 30.12 in1020.0 mb - 0.00 in0.0 mm 0.00 in0.0 mm
03:30 PM 62.6°F17.0°C 49.4°F9.7°C 62% 6.9 mph N11.1 kmh N 12.7 mph20.4 kmh 30.12 in1020.0 mb - 0.00 in0.0 mm 0.00 in0.0 mm
03:40 PM 63.0°F17.2°C 49.3°F9.6°C 61% 6.9 mph NNW11.1 kmh NNW 9.2 mph14.8 kmh 30.12 in1020.0 mb - 0.00 in0.0 mm 0.00 in0.0 mm
03:50 PM 62.0°F16.7°C 48.4°F9.1°C 61% 4.6 mph NNW7.4 kmh NNW 9.2 mph14.8 kmh 30.12 in1020.0 mb - 0.00 in0.0 mm 0.00 in0.0 mm
04:00 PM 62.0°F16.7°C 48.4°F9.1°C 61% 5.8 mph NW9.3 kmh NW 9.2 mph14.8 kmh 30.09 in1019.0 mb - 0.00 in0.0 mm 0.00 in0.0 mm
04:10 PM 61.1°F16.2°C 48.0°F8.9°C 62% 5.8 mph NW9.3 kmh NW 6.9 mph11.1 kmh 30.09 in1019.0 mb - 0.00 in0.0 mm 0.00 in0.0 mm
04:20 PM 60.1°F15.6°C 47.4°F8.6°C 63% 5.8 mph NW9.3 kmh NW 9.2 mph14.8 kmh 30.09 in1019.0 mb - 0.00 in0.0 mm 0.00 in0.0 mm
04:30 PM 59.6°F15.3°C 47.0°F8.3°C 63% 3.5 mph NW5.6 kmh NW 5.8 mph9.3 kmh 30.09 in1019.0 mb - 0.00 in0.0 mm 0.00 in0.0 mm
04:40 PM 59.4°F15.2°C 47.2°F8.4°C 64% 5.8 mph WNW9.3 kmh WNW 8.1 mph13.0 kmh 30.09 in1019.0 mb - 0.00 in0.0 mm 0.00 in0.0 mm
04:50 PM 58.8°F14.9°C 47.1°F8.4°C 65% 5.8 mph NW9.3 kmh NW 9.2 mph14.8 kmh 30.09 in1019.0 mb - 0.00 in0.0 mm 0.00 in0.0 mm
05:00 PM 58.1°F14.5°C 46.4°F8.0°C 65% 5.8 mph NW9.3 kmh NW 8.1 mph13.0 kmh 30.09 in1019.0 mb - 0.00 in0.0 mm 0.00 in0.0 mm
05:10 PM 57.6°F14.2°C 46.3°F7.9°C 66% 8.1 mph NW13.0 kmh NW 9.2 mph14.8 kmh 30.09 in1019.0 mb - 0.00 in0.0 mm 0.00 in0.0 mm
05:20 PM 56.8°F13.8°C 46.4°F8.0°C 68% 8.1 mph NW13.0 kmh NW 11.5 mph18.5 kmh 30.09 in1019.0 mb - 0.00 in0.0 mm 0.00 in0.0 mm
05:30 PM 56.3°F13.5°C 46.3°F7.9°C 69% 5.8 mph NW9.3 kmh NW 9.2 mph14.8 kmh 30.09 in1019.0 mb - 0.00 in0.0 mm 0.00 in0.0 mm
05:40 PM 55.9°F13.3°C 46.3°F7.9°C 70% 4.6 mph NW7.4 kmh NW 5.8 mph9.3 kmh 30.09 in1019.0 mb - 0.00 in0.0 mm 0.00 in0.0 mm
05:50 PM 55.4°F13.0°C 46.2°F7.9°C 71% 4.6 mph WNW7.4 kmh WNW 5.8 mph9.3 kmh 30.09 in1019.0 mb - 0.00 in0.0 mm 0.00 in0.0 mm
06:00 PM 55.4°F13.0°C 46.5°F8.1°C 72% 4.6 mph NW7.4 kmh NW 8.1 mph13.0 kmh 30.09 in1019.0 mb - 0.00 in0.0 mm 0.00 in0.0 mm
06:10 PM 55.2°F12.9°C 46.7°F8.2°C 73% 4.6 mph NW7.4 kmh NW 5.8 mph9.3 kmh 30.09 in1019.0 mb - 0.00 in0.0 mm 0.00 in0.0 mm
06:20 PM 54.9°F12.7°C 46.4°F8.0°C 73% 4.6 mph NW7.4 kmh NW 5.8 mph9.3 kmh 30.12 in1020.0 mb - 0.00 in0.0 mm 0.00 in0.0 mm
06:30 PM 54.7°F12.6°C 46.2°F7.9°C 73% 5.8 mph NW9.3 kmh NW 9.2 mph14.8 kmh 30.12 in1020.0 mb - 0.00 in0.0 mm 0.00 in0.0 mm
06:40 PM 54.4°F12.4°C 46.0°F7.8°C 73% 9.2 mph NNW14.8 kmh NNW 10.4 mph16.7 kmh 30.12 in1020.0 mb - 0.00 in0.0 mm 0.00 in0.0 mm
06:50 PM 54.0°F12.2°C 46.2°F7.9°C 75% 9.2 mph NW14.8 kmh NW 12.7 mph20.4 kmh 30.09 in1019.0 mb - 0.00 in0.0 mm 0.00 in0.0 mm
07:00 PM 53.6°F12.0°C 46.6°F8.1°C 77% 8.1 mph NW13.0 kmh NW 10.4 mph16.7 kmh 30.12 in1020.0 mb - 0.00 in0.0 mm 0.00 in0.0 mm
07:10 PM 53.2°F11.8°C 47.2°F8.4°C 80% 8.1 mph NW13.0 kmh NW 11.5 mph18.5 kmh 30.12 in1020.0 mb - 0.00 in0.0 mm 0.00 in0.0 mm
07:20 PM 53.1°F11.7°C 47.4°F8.6°C 81% 5.8 mph NW9.3 kmh NW 8.1 mph13.0 kmh 30.12 in1020.0 mb - 0.00 in0.0 mm 0.00 in0.0 mm
07:30 PM 52.9°F11.6°C 47.5°F8.6°C 82% 6.9 mph NW11.1 kmh NW 9.2 mph14.8 kmh 30.12 in1020.0 mb - 0.00 in0.0 mm 0.00 in0.0 mm
07:40 PM 52.7°F11.5°C 47.7°F8.7°C 83% 6.9 mph NW11.1 kmh NW 9.2 mph14.8 kmh 30.12 in1020.0 mb - 0.00 in0.0 mm 0.00 in0.0 mm
07:50 PM 52.7°F11.5°C 48.0°F8.9°C 84% 5.8 mph NW9.3 kmh NW 8.1 mph13.0 kmh 30.12 in1020.0 mb - 0.00 in0.0 mm 0.00 in0.0 mm
08:10 PM 52.0°F11.1°C 48.2°F9.0°C 87% 3.5 mph NW5.6 kmh NW 5.8 mph9.3 kmh 30.12 in1020.0 mb - 0.00 in0.0 mm 0.00 in0.0 mm
08:20 PM 51.6°F10.9°C 48.5°F9.2°C 89% 4.6 mph NNW7.4 kmh NNW 5.8 mph9.3 kmh 30.12 in1020.0 mb - 0.00 in0.0 mm 0.00 in0.0 mm
08:30 PM 51.6°F10.9°C 49.1°F9.5°C 91% 5.8 mph NNW9.3 kmh NNW 5.8 mph9.3 kmh 30.12 in1020.0 mb - 0.00 in0.0 mm 0.00 in0.0 mm
08:40 PM 51.4°F10.8°C 49.5°F9.7°C 93% 5.8 mph NW9.3 kmh NW 8.1 mph13.0 kmh 30.12 in1020.0 mb - 0.00 in0.0 mm 0.00 in0.0 mm
08:50 PM 51.3°F10.7°C 49.6°F9.8°C 94% 4.6 mph N7.4 kmh N 3.5 mph5.6 kmh 30.12 in1020.0 mb - 0.00 in0.0 mm 0.00 in0.0 mm
09:10 PM 50.9°F10.5°C 49.5°F9.7°C 95% 4.6 mph NW7.4 kmh NW 5.8 mph9.3 kmh 30.12 in1020.0 mb - 0.00 in0.0 mm 0.00 in0.0 mm
09:20 PM 50.7°F10.4°C 49.6°F9.8°C 96% 3.5 mph NW5.6 kmh NW 4.6 mph7.4 kmh 30.12 in1020.0 mb - 0.00 in0.0 mm 0.00 in0.0 mm
09:30 PM 50.7°F10.4°C 49.6°F9.8°C 96% 3.5 mph NNW5.6 kmh NNW 4.6 mph7.4 kmh 30.12 in1020.0 mb - 0.00 in0.0 mm 0.00 in0.0 mm
10:20 PM 50.5°F10.3°C 50.0°F10.0°C 98% 3.5 mph NW5.6 kmh NW 3.5 mph5.6 kmh 30.12 in1020.0 mb - 0.00 in0.0 mm 0.00 in0.0 mm
10:30 PM 50.5°F10.3°C 50.0°F10.0°C 98% 1.2 mph NW1.9 kmh NW 3.5 mph5.6 kmh 30.12 in1020.0 mb - 0.00 in0.0 mm 0.00 in0.0 mm
10:40 PM 50.7°F10.4°C 50.2°F10.1°C 98% 3.5 mph NNW5.6 kmh NNW 3.5 mph5.6 kmh 30.12 in1020.0 mb - 0.00 in0.0 mm 0.00 in0.0 mm
10:50 PM 50.7°F10.4°C 50.2°F10.1°C 98% 4.6 mph NNW7.4 kmh NNW 5.8 mph9.3 kmh 30.12 in1020.0 mb - 0.00 in0.0 mm 0.00 in0.0 mm
11:00 PM 50.4°F10.2°C 49.9°F9.9°C 98% 3.5 mph N5.6 kmh N 4.6 mph7.4 kmh 30.12 in1020.0 mb - 0.00 in0.0 mm 0.00 in0.0 mm
11:10 PM 50.4°F10.2°C 49.8°F9.9°C 98% 2.3 mph NNW3.7 kmh NNW 3.5 mph5.6 kmh 30.12 in1020.0 mb - 0.00 in0.0 mm 0.00 in0.0 mm
11:20 PM 50.4°F10.2°C 49.8°F9.9°C 98% 2.3 mph N3.7 kmh N 3.5 mph5.6 kmh 30.12 in1020.0 mb - 0.00 in0.0 mm 0.00 in0.0 mm
11:30 PM 50.4°F10.2°C 49.8°F9.9°C 98% 3.5 mph N5.6 kmh N 5.8 mph9.3 kmh 30.12 in1020.0 mb - 0.00 in0.0 mm 0.00 in0.0 mm
11:40 PM 50.4°F10.2°C 49.8°F9.9°C 98% 4.6 mph N7.4 kmh N 5.8 mph9.3 kmh 30.12 in1020.0 mb - 0.00 in0.0 mm 0.00 in0.0 mm
11:50 PM 50.4°F10.2°C 49.8°F9.9°C 98% 5.8 mph N9.3 kmh N 10.4 mph16.7 kmh 30.12 in1020.0 mb - 0.00 in0.0 mm 0.00 in0.0 mm